Time;durP1;ratioP1;P1;durP2;ratioP2;P2;SDS_P1;SDS_P2;PMS_P1;PMS_P2;Temp;Humidity;BMP_temperature;BMP_pressure;BME280_temperature;BME280_humidity;BME280_pressure;Samples;Min_cycle;Max_cycle;Signal;HPM_P1;HPM_P2
2023/06/22 00:01:07;;;;;;;3.90;3.43;;;;;;;;;;4953354;29;20546;-80
2023/06/22 00:03:33;;;;;;;5.50;3.80;;;;;;;;;;4921795;29;20448;-80
2023/06/22 00:05:59;;;;;;;5.20;3.80;;;;;;;;;;4937949;29;20806;-80
2023/06/22 00:08:25;;;;;;;3.60;3.30;;;;;;;;;;4954913;29;20417;-80
2023/06/22 00:10:51;;;;;;;3.90;3.50;;;;;;;;;;4954723;29;20420;-80
2023/06/22 00:13:17;;;;;;;4.60;3.80;;;;;;;;;;4954661;29;20424;-80
2023/06/22 00:15:44;;;;;;;3.50;3.20;;;;;;;;;;4953332;29;20419;-82
2023/06/22 00:18:11;;;;;;;7.97;3.60;;;;;;;;;;4954645;29;20444;-80
2023/06/22 00:20:37;;;;;;;5.43;3.70;;;;;;;;;;4954718;28;20813;-80
2023/06/22 00:23:10;;;;;;;4.00;2.90;;;;;;;;;;4957748;29;20429;-80
2023/06/22 00:25:37;;;;;;;3.50;3.17;;;;;;;;;;4958065;29;20904;-80
2023/06/22 00:28:03;;;;;;;8.03;3.60;;;;;;;;;;4957020;29;20819;-80
2023/06/22 00:30:30;;;;;;;5.00;3.40;;;;;;;;;;4958162;29;20472;-80
2023/06/22 00:32:56;;;;;;;3.90;3.30;;;;;;;;;;4956517;29;20422;-80
2023/06/22 00:35:23;;;;;;;5.90;3.37;;;;;;;;;;4924973;29;20786;-80
2023/06/22 00:37:49;;;;;;;4.20;3.20;;;;;;;;;;4940604;29;20440;-81
2023/06/22 00:40:17;;;;;;;5.37;2.97;;;;;;;;;;4925011;29;20507;-80
2023/06/22 00:42:43;;;;;;;3.47;3.17;;;;;;;;;;4940938;29;20431;-80
2023/06/22 00:45:09;;;;;;;6.43;3.93;;;;;;;;;;4956478;29;20574;-80
2023/06/22 00:47:36;;;;;;;3.80;3.30;;;;;;;;;;4957729;29;20408;-80
2023/06/22 00:50:03;;;;;;;5.83;3.40;;;;;;;;;;4940511;29;20412;-80
2023/06/22 00:52:30;;;;;;;5.37;3.70;;;;;;;;;;4924946;29;20428;-80
2023/06/22 00:55:01;;;;;;;6.33;3.77;;;;;;;;;;4941217;29;20530;-80
2023/06/22 00:57:27;;;;;;;3.53;3.20;;;;;;;;;;4957175;29;20511;-80
2023/06/22 00:59:54;;;;;;;5.70;3.57;;;;;;;;;;4957869;29;20456;-81
2023/06/22 01:02:20;;;;;;;4.10;3.70;;;;;;;;;;4956952;29;20512;-80
2023/06/22 01:04:46;;;;;;;7.60;3.60;;;;;;;;;;4956434;29;20420;-81
2023/06/22 01:07:27;;;;;;;4.43;3.33;;;;;;;;;;4956370;29;20428;-79
2023/06/22 01:09:59;;;;;;;5.33;3.50;;;;;;;;;;4956155;29;20987;-81
2023/06/22 01:12:26;;;;;;;5.50;4.20;;;;;;;;;;4957800;29;20515;-80
2023/06/22 01:14:56;;;;;;;3.87;3.47;;;;;;;;;;4955834;29;20504;-80
2023/06/22 01:17:23;;;;;;;4.77;3.70;;;;;;;;;;4956079;29;20428;-80
2023/06/22 01:19:55;;;;;;;4.13;3.70;;;;;;;;;;4955963;29;20559;-80
2023/06/22 01:22:24;;;;;;;5.00;3.43;;;;;;;;;;4955811;29;20443;-80
2023/06/22 01:25:01;;;;;;;6.20;3.80;;;;;;;;;;4955656;29;20845;-80
2023/06/22 01:27:26;;;;;;;4.10;3.70;;;;;;;;;;4956157;29;20790;-80
2023/06/22 01:30:00;;;;;;;5.60;3.77;;;;;;;;;;4956624;29;20500;-80
2023/06/22 01:32:27;;;;;;;7.03;4.20;;;;;;;;;;4955676;28;20420;-80
2023/06/22 01:34:53;;;;;;;5.07;3.90;;;;;;;;;;4939214;29;20896;-80
2023/06/22 01:37:19;;;;;;;4.83;3.60;;;;;;;;;;4923783;29;20434;-80
2023/06/22 01:39:45;;;;;;;6.40;3.13;;;;;;;;;;4956690;29;20416;-81
2023/06/22 01:42:12;;;;;;;4.33;3.47;;;;;;;;;;4955563;29;20431;-80
2023/06/22 01:44:38;;;;;;;4.40;3.40;;;;;;;;;;4957108;29;20417;-80
2023/06/22 01:47:04;;;;;;;4.43;2.97;;;;;;;;;;4923469;29;20420;-80
2023/06/22 01:49:30;;;;;;;5.67;3.83;;;;;;;;;;4923556;29;20483;-81
2023/06/22 01:51:56;;;;;;;3.70;3.30;;;;;;;;;;4923198;29;20482;-81
2023/06/22 01:54:22;;;;;;;6.07;3.50;;;;;;;;;;4939364;29;20834;-80
2023/06/22 01:56:48;;;;;;;4.13;3.27;;;;;;;;;;4956804;29;20438;-81
2023/06/22 01:59:33;;;;;;;5.70;3.60;;;;;;;;;;4923404;29;20417;-80
2023/06/22 02:02:03;;;;;;;4.43;3.40;;;;;;;;;;4956169;29;20436;-80
2023/06/22 02:04:34;;;;;;;8.30;3.70;;;;;;;;;;4956254;29;20416;-80
2023/06/22 02:07:01;;;;;;;4.73;3.63;;;;;;;;;;4956550;29;20459;-80
2023/06/22 02:09:29;;;;;;;4.47;3.47;;;;;;;;;;4956262;29;20413;-80
2023/06/22 02:11:56;;;;;;;4.43;4.03;;;;;;;;;;4954924;29;20420;-80
2023/06/22 02:14:23;;;;;;;4.03;3.33;;;;;;;;;;4955198;29;20491;-80
2023/06/22 02:16:50;;;;;;;5.93;3.90;;;;;;;;;;4955728;29;20500;-80
2023/06/22 02:19:18;;;;;;;4.90;3.33;;;;;;;;;;4954908;29;20456;-80
2023/06/22 02:21:44;;;;;;;7.57;4.20;;;;;;;;;;4956012;29;20472;-80
2023/06/22 02:24:10;;;;;;;7.27;4.20;;;;;;;;;;4923319;29;20471;-80
2023/06/22 02:26:38;;;;;;;9.83;3.80;;;;;;;;;;4939066;29;20452;-80
2023/06/22 02:29:04;;;;;;;5.63;3.63;;;;;;;;;;4954609;29;20420;-80
2023/06/22 02:31:30;;;;;;;3.30;3.00;;;;;;;;;;4922819;29;20432;-80
2023/06/22 02:33:59;;;;;;;5.90;3.93;;;;;;;;;;4938888;29;20416;-80
2023/06/22 02:36:30;;;;;;;5.27;3.37;;;;;;;;;;4954593;29;20439;-80
2023/06/22 02:38:58;;;;;;;4.70;4.20;;;;;;;;;;4955534;29;20472;-80
2023/06/22 02:41:24;;;;;;;5.03;3.57;;;;;;;;;;4955571;29;20472;-80
2023/06/22 02:43:50;;;;;;;4.93;4.10;;;;;;;;;;4953880;28;20407;-80
2023/06/22 02:46:16;;;;;;;4.60;4.20;;;;;;;;;;4938624;29;20409;-80
2023/06/22 02:48:42;;;;;;;4.33;3.67;;;;;;;;;;4955718;29;20443;-80
2023/06/22 02:51:09;;;;;;;4.47;4.03;;;;;;;;;;4954176;29;20845;-80
2023/06/22 02:53:34;;;;;;;4.53;4.03;;;;;;;;;;4950960;29;20492;-80
2023/06/22 02:56:05;;;;;;;3.97;3.57;;;;;;;;;;4936054;29;20772;-80
2023/06/22 02:58:38;;;;;;;4.03;3.63;;;;;;;;;;4950917;29;20436;-80
2023/06/22 03:01:04;;;;;;;6.10;3.90;;;;;;;;;;4936232;29;20449;-80
2023/06/22 03:03:30;;;;;;;4.30;3.67;;;;;;;;;;4936484;29;20622;-80
2023/06/22 03:05:56;;;;;;;4.70;3.67;;;;;;;;;;4936053;29;20414;-79
2023/06/22 03:08:22;;;;;;;4.50;3.90;;;;;;;;;;4950879;29;20470;-80
2023/06/22 03:10:48;;;;;;;5.27;3.13;;;;;;;;;;4950845;29;20461;-82
2023/06/22 03:13:15;;;;;;;5.07;4.00;;;;;;;;;;4935162;29;20929;-80
2023/06/22 03:15:41;;;;;;;5.63;3.60;;;;;;;;;;4935380;29;20917;-80
2023/06/22 03:18:07;;;;;;;4.17;3.77;;;;;;;;;;4935068;29;20476;-80
2023/06/22 03:20:33;;;;;;;4.70;3.80;;;;;;;;;;4918945;29;20465;-80
2023/06/22 03:22:59;;;;;;;4.40;3.57;;;;;;;;;;4936126;29;20422;-80
2023/06/22 03:25:25;;;;;;;4.10;3.10;;;;;;;;;;4935071;29;21004;-80
2023/06/22 03:27:51;;;;;;;4.90;3.33;;;;;;;;;;4934757;29;20497;-81
2023/06/22 03:30:17;;;;;;;4.13;3.73;;;;;;;;;;4934705;29;20429;-80
2023/06/22 03:32:43;;;;;;;4.60;3.33;;;;;;;;;;4936089;29;20425;-80
2023/06/22 03:35:10;;;;;;;3.63;3.30;;;;;;;;;;4950414;29;20811;-80
2023/06/22 03:37:36;;;;;;;4.50;3.50;;;;;;;;;;4934862;29;20406;-80
2023/06/22 03:40:05;;;;;;;3.77;3.30;;;;;;;;;;4934514;29;20476;-79
2023/06/22 03:42:31;;;;;;;5.17;3.93;;;;;;;;;;4950927;29;20422;-80
2023/06/22 03:44:57;;;;;;;4.90;3.50;;;;;;;;;;4935951;29;20409;-80
2023/06/22 03:47:23;;;;;;;6.70;4.40;;;;;;;;;;4950675;29;20929;-80
2023/06/22 03:49:49;;;;;;;4.47;4.07;;;;;;;;;;4950636;29;20414;-80
2023/06/22 03:52:15;;;;;;;6.07;4.27;;;;;;;;;;4950540;29;20425;-80
2023/06/22 03:54:41;;;;;;;4.60;4.10;;;;;;;;;;4934398;29;20476;-81
2023/06/22 03:57:07;;;;;;;5.13;4.37;;;;;;;;;;4936452;29;20406;-80
2023/06/22 03:59:33;;;;;;;4.90;4.10;;;;;;;;;;4954220;29;20867;-80
2023/06/22 04:01:59;;;;;;;9.13;4.90;;;;;;;;;;4953990;29;20576;-80
2023/06/22 04:04:25;;;;;;;4.13;3.77;;;;;;;;;;4938488;29;20472;-80
2023/06/22 04:06:51;;;;;;;6.17;4.80;;;;;;;;;;4954047;29;20429;-83
2023/06/22 04:09:17;;;;;;;4.90;4.30;;;;;;;;;;4938101;29;20925;-80
2023/06/22 04:11:43;;;;;;;4.83;3.93;;;;;;;;;;4938475;29;20409;-80
2023/06/22 04:14:09;;;;;;;9.37;4.27;;;;;;;;;;4938962;29;20412;-80
2023/06/22 04:16:35;;;;;;;4.43;3.90;;;;;;;;;;4954290;29;20421;-80
2023/06/22 04:19:01;;;;;;;5.23;3.77;;;;;;;;;;4953798;29;20929;-81
2023/06/22 04:21:27;;;;;;;9.20;4.00;;;;;;;;;;4937938;29;20464;-80
2023/06/22 04:23:53;;;;;;;6.47;4.33;;;;;;;;;;4937643;29;20511;-81
2023/06/22 04:26:20;;;;;;;8.57;5.50;;;;;;;;;;4937980;29;20911;-80
2023/06/22 04:28:51;;;;;;;6.57;4.30;;;;;;;;;;4953940;28;20432;-80
2023/06/22 04:31:17;;;;;;;5.20;4.50;;;;;;;;;;4938217;29;20441;-80
2023/06/22 04:33:43;;;;;;;4.73;4.23;;;;;;;;;;4937719;29;20405;-80
2023/06/22 04:36:13;;;;;;;4.60;4.20;;;;;;;;;;4953176;29;20430;-81
2023/06/22 04:38:39;;;;;;;4.80;4.30;;;;;;;;;;4937630;29;20424;-80
2023/06/22 04:41:05;;;;;;;4.93;4.50;;;;;;;;;;4938603;29;20469;-80
2023/06/22 04:43:31;;;;;;;5.93;4.53;;;;;;;;;;4953440;29;20422;-80
2023/06/22 04:46:03;;;;;;;5.53;5.03;;;;;;;;;;4938498;29;20401;-80
2023/06/22 04:48:32;;;;;;;8.27;5.13;;;;;;;;;;4938620;29;20437;-81
2023/06/22 04:51:03;;;;;;;6.60;5.00;;;;;;;;;;4938432;29;20429;-80
2023/06/22 04:53:29;;;;;;;6.27;5.10;;;;;;;;;;4953222;29;20481;-80
2023/06/22 04:55:55;;;;;;;6.70;4.73;;;;;;;;;;4953231;29;20422;-81
2023/06/22 04:58:21;;;;;;;5.20;4.30;;;;;;;;;;4953343;29;20417;-80
2023/06/22 05:00:48;;;;;;;5.93;4.17;;;;;;;;;;4953237;29;20504;-80
2023/06/22 05:03:14;;;;;;;4.10;3.40;;;;;;;;;;4938086;29;20416;-81
2023/06/22 05:05:39;;;;;;;4.93;4.47;;;;;;;;;;4938450;29;20414;-80
2023/06/22 05:08:06;;;;;;;5.43;4.43;;;;;;;;;;4952949;28;20413;-80
2023/06/22 05:10:33;;;;;;;4.97;4.47;;;;;;;;;;4953154;29;20941;-80
2023/06/22 05:12:59;;;;;;;6.03;5.43;;;;;;;;;;4938327;29;21025;-80
2023/06/22 05:15:27;;;;;;;6.23;4.57;;;;;;;;;;4938217;29;20496;-80
2023/06/22 05:17:54;;;;;;;5.80;5.20;;;;;;;;;;4938000;29;20406;-80
2023/06/22 05:20:21;;;;;;;8.50;5.00;;;;;;;;;;4936585;29;20806;-80
2023/06/22 05:22:47;;;;;;;5.50;4.90;;;;;;;;;;4952731;29;20484;-80
2023/06/22 05:25:13;;;;;;;5.80;4.67;;;;;;;;;;4952771;29;20472;-80
2023/06/22 05:27:40;;;;;;;5.60;4.83;;;;;;;;;;4938130;29;20422;-80
2023/06/22 05:30:09;;;;;;;7.23;4.40;;;;;;;;;;4937738;29;20771;-80
2023/06/22 05:32:35;;;;;;;6.70;4.73;;;;;;;;;;4937679;29;20529;-80
2023/06/22 05:35:01;;;;;;;5.70;5.20;;;;;;;;;;4952481;29;20416;-81
2023/06/22 05:37:28;;;;;;;5.33;4.80;;;;;;;;;;4952561;29;20826;-80
2023/06/22 05:39:55;;;;;;;5.80;5.00;;;;;;;;;;4952721;29;20786;-80
2023/06/22 05:42:21;;;;;;;4.97;4.57;;;;;;;;;;4936358;29;20498;-80
2023/06/22 05:44:47;;;;;;;4.83;4.20;;;;;;;;;;4937592;29;20428;-79
2023/06/22 05:47:13;;;;;;;6.70;4.47;;;;;;;;;;4936154;29;20902;-80
2023/06/22 05:49:39;;;;;;;7.53;4.73;;;;;;;;;;4952530;29;20413;-80
2023/06/22 05:52:08;;;;;;;5.50;5.00;;;;;;;;;;4936105;29;20424;-80
2023/06/22 05:54:35;;;;;;;6.03;5.50;;;;;;;;;;4951597;29;20476;-80
2023/06/22 05:57:01;;;;;;;7.30;5.03;;;;;;;;;;4939345;29;20964;-80
2023/06/22 05:59:27;;;;;;;6.73;5.23;;;;;;;;;;4956677;29;20511;-80
2023/06/22 06:01:53;;;;;;;5.60;5.07;;;;;;;;;;4955055;29;20474;-80
2023/06/22 06:04:19;;;;;;;6.30;5.00;;;;;;;;;;4955128;29;20491;-80
2023/06/22 06:06:48;;;;;;;6.20;4.80;;;;;;;;;;4955214;29;20975;-87
2023/06/22 06:09:14;;;;;;;4.87;4.37;;;;;;;;;;4955173;29;20826;-87
2023/06/22 06:11:41;;;;;;;5.30;4.67;;;;;;;;;;4955006;29;20431;-87
2023/06/22 06:14:06;;;;;;;8.10;5.20;;;;;;;;;;4954959;29;20424;-87
2023/06/22 06:16:32;;;;;;;5.80;5.00;;;;;;;;;;4939464;29;20504;-86
2023/06/22 06:18:58;;;;;;;5.90;5.20;;;;;;;;;;4922963;29;20429;-88
2023/06/22 06:21:25;;;;;;;7.60;5.67;;;;;;;;;;4954965;29;20463;-87
2023/06/22 06:23:51;;;;;;;7.37;5.37;;;;;;;;;;4923181;29;20440;-86
2023/06/22 06:26:17;;;;;;;6.77;6.17;;;;;;;;;;4922519;29;20424;-87
2023/06/22 06:28:43;;;;;;;10.33;6.40;;;;;;;;;;4954644;29;20491;-87
2023/06/22 06:31:09;;;;;;;8.90;5.67;;;;;;;;;;4955765;29;20416;-86
2023/06/22 06:33:36;;;;;;;7.30;5.90;;;;;;;;;;4922798;29;20425;-86
2023/06/22 06:36:03;;;;;;;6.30;5.60;;;;;;;;;;4954765;29;20432;-87
2023/06/22 06:38:29;;;;;;;7.23;6.00;;;;;;;;;;4923550;29;20773;-86
2023/06/22 06:40:55;;;;;;;6.93;5.70;;;;;;;;;;4922995;29;21013;-86
2023/06/22 06:43:21;;;;;;;7.70;6.27;;;;;;;;;;4922960;29;20531;-86
2023/06/22 06:45:47;;;;;;;6.63;6.03;;;;;;;;;;4954601;29;20503;-86
2023/06/22 06:48:13;;;;;;;8.50;6.27;;;;;;;;;;4922788;29;20444;-87
2023/06/22 06:50:39;;;;;;;6.60;6.00;;;;;;;;;;4923016;29;20785;-86
2023/06/22 06:53:06;;;;;;;9.87;6.73;;;;;;;;;;4922158;29;20436;-86
2023/06/22 06:55:32;;;;;;;7.90;7.10;;;;;;;;;;4954411;29;20425;-86
2023/06/22 06:57:59;;;;;;;8.87;6.93;;;;;;;;;;4954189;29;20424;-87
2023/06/22 07:00:25;;;;;;;6.83;6.00;;;;;;;;;;4955225;29;20563;-87
2023/06/22 07:02:52;;;;;;;6.93;6.27;;;;;;;;;;4954458;29;20421;-87
2023/06/22 07:05:18;;;;;;;8.50;6.47;;;;;;;;;;4938240;29;20463;-87
2023/06/22 07:07:44;;;;;;;7.20;6.37;;;;;;;;;;4921940;29;20480;-88
2023/06/22 07:10:11;;;;;;;7.57;6.87;;;;;;;;;;4922968;29;20483;-87
2023/06/22 07:12:37;;;;;;;7.03;6.30;;;;;;;;;;4922611;29;20416;-87
2023/06/22 07:15:09;;;;;;;8.23;7.03;;;;;;;;;;4955724;29;20400;-89
2023/06/22 07:17:36;;;;;;;8.77;7.93;;;;;;;;;;4954211;29;20450;-87
2023/06/22 07:20:10;;;;;;;13.03;8.03;;;;;;;;;;4954007;29;20840;-88
2023/06/22 07:22:36;;;;;;;8.57;7.77;;;;;;;;;;4954721;29;20448;-87
2023/06/22 07:25:08;;;;;;;7.77;7.00;;;;;;;;;;4922449;29;20431;-87
2023/06/22 07:27:35;;;;;;;9.70;8.67;;;;;;;;;;4955126;29;20440;-87
2023/06/22 07:30:01;;;;;;;9.77;8.60;;;;;;;;;;4956084;28;20409;-87
2023/06/22 07:32:28;;;;;;;12.27;10.17;;;;;;;;;;4968035;28;20497;-87
2023/06/22 07:34:54;;;;;;;13.17;10.73;;;;;;;;;;4931469;29;20420;-87
2023/06/22 07:37:21;;;;;;;10.20;9.10;;;;;;;;;;4930090;29;20950;-86
2023/06/22 07:39:48;;;;;;;13.67;9.23;;;;;;;;;;4960693;29;20427;-87
2023/06/22 07:42:18;;;;;;;13.20;8.03;;;;;;;;;;4928525;29;20483;-87
2023/06/22 07:44:45;;;;;;;9.70;8.70;;;;;;;;;;4928676;29;20417;-86
2023/06/22 07:47:11;;;;;;;12.07;8.30;;;;;;;;;;4959608;29;20790;-87
2023/06/22 07:49:37;;;;;;;13.60;8.13;;;;;;;;;;4927812;29;20431;-87
2023/06/22 07:52:04;;;;;;;8.80;7.90;;;;;;;;;;4942857;29;20412;-87
2023/06/22 07:54:30;;;;;;;9.03;8.23;;;;;;;;;;4960405;29;20460;-87
2023/06/22 07:56:56;;;;;;;11.20;9.40;;;;;;;;;;4959945;29;20397;-86
2023/06/22 07:59:22;;;;;;;8.60;7.80;;;;;;;;;;4926658;29;20571;-87
2023/06/22 08:01:49;;;;;;;9.17;8.37;;;;;;;;;;4958063;29;21013;-86
2023/06/22 08:04:15;;;;;;;9.00;8.20;;;;;;;;;;4942223;29;20444;-87
2023/06/22 08:06:41;;;;;;;10.37;9.20;;;;;;;;;;4926685;29;20475;-87
2023/06/22 08:09:07;;;;;;;10.17;8.87;;;;;;;;;;4958415;29;20408;-87
2023/06/22 08:11:33;;;;;;;10.47;9.57;;;;;;;;;;4929452;29;20515;-87
2023/06/22 08:13:59;;;;;;;8.93;7.93;;;;;;;;;;4927507;29;20474;-87
2023/06/22 08:16:25;;;;;;;11.63;9.00;;;;;;;;;;4942217;29;20452;-87
2023/06/22 08:18:51;;;;;;;9.47;7.57;;;;;;;;;;4958976;29;20408;-87
2023/06/22 08:21:17;;;;;;;9.47;8.50;;;;;;;;;;4941604;29;20456;-87
2023/06/22 08:23:43;;;;;;;8.93;7.93;;;;;;;;;;4958492;29;20432;-87
2023/06/22 08:26:09;;;;;;;9.43;8.33;;;;;;;;;;4957883;29;20500;-88
2023/06/22 08:28:36;;;;;;;10.20;9.20;;;;;;;;;;4926497;29;20428;-88
2023/06/22 08:31:03;;;;;;;11.10;7.80;;;;;;;;;;4959059;29;20491;-88
2023/06/22 08:33:30;;;;;;;10.00;7.40;;;;;;;;;;4925601;29;20420;-88
2023/06/22 08:35:58;;;;;;;8.90;8.20;;;;;;;;;;4941951;29;20556;-87
2023/06/22 08:38:24;;;;;;;9.33;8.47;;;;;;;;;;4958901;29;20515;-87
2023/06/22 08:40:50;;;;;;;9.97;8.53;;;;;;;;;;4925799;29;21007;-87
2023/06/22 08:43:17;;;;;;;8.53;7.73;;;;;;;;;;4962835;28;20576;-88
2023/06/22 08:45:43;;;;;;;10.30;9.50;;;;;;;;;;4951585;29;20413;-87
2023/06/22 08:48:09;;;;;;;9.30;8.50;;;;;;;;;;4932061;29;20454;-88
2023/06/22 08:50:34;;;;;;;10.60;9.60;;;;;;;;;;4926363;29;20491;-87
2023/06/22 08:53:00;;;;;;;10.90;9.80;;;;;;;;;;4958652;29;20419;-87
2023/06/22 08:55:26;;;;;;;10.00;9.10;;;;;;;;;;4925722;29;20417;-87
2023/06/22 08:57:52;;;;;;;10.63;9.57;;;;;;;;;;4941616;29;20408;-87
2023/06/22 09:00:20;;;;;;;8.93;8.13;;;;;;;;;;4940946;29;20846;-87
2023/06/22 09:02:46;;;;;;;11.83;9.17;;;;;;;;;;4925152;29;20429;-88
2023/06/22 09:05:12;;;;;;;12.37;10.00;;;;;;;;;;4956800;29;20900;-88
2023/06/22 09:07:38;;;;;;;9.20;8.40;;;;;;;;;;4959437;29;20427;-87
2023/06/22 09:10:05;;;;;;;9.20;8.30;;;;;;;;;;4956821;29;20424;-88
2023/06/22 09:12:32;;;;;;;11.33;8.10;;;;;;;;;;4956506;29;20470;-89
2023/06/22 09:15:00;;;;;;;8.93;8.13;;;;;;;;;;4956773;29;20420;-88
2023/06/22 09:17:26;;;;;;;9.40;8.57;;;;;;;;;;4957996;29;20436;-89
2023/06/22 09:19:52;;;;;;;9.37;8.57;;;;;;;;;;4957743;29;20500;-88
2023/06/22 09:22:18;;;;;;;9.70;8.73;;;;;;;;;;4957981;29;20428;-88
2023/06/22 09:24:44;;;;;;;9.13;8.33;;;;;;;;;;4957705;29;20413;-88
2023/06/22 09:27:10;;;;;;;9.27;8.47;;;;;;;;;;4957795;29;20408;-89
2023/06/22 09:29:36;;;;;;;9.70;7.37;;;;;;;;;;4925224;29;20483;-88
2023/06/22 09:32:02;;;;;;;8.33;7.53;;;;;;;;;;4925250;29;20519;-89
2023/06/22 09:34:28;;;;;;;14.37;7.47;;;;;;;;;;4956215;29;20441;-88
2023/06/22 09:36:55;;;;;;;8.20;7.40;;;;;;;;;;4924908;29;20455;-88
2023/06/22 09:39:21;;;;;;;7.57;6.87;;;;;;;;;;4924549;29;20432;-88
2023/06/22 09:41:47;;;;;;;9.10;8.20;;;;;;;;;;4958158;29;20464;-88
2023/06/22 09:44:13;;;;;;;8.40;6.40;;;;;;;;;;4927446;29;20423;-89
2023/06/22 09:46:39;;;;;;;7.83;7.13;;;;;;;;;;4956757;29;20980;-88
2023/06/22 09:49:05;;;;;;;7.93;7.17;;;;;;;;;;4943708;29;20401;-88
2023/06/22 09:51:31;;;;;;;6.97;6.37;;;;;;;;;;4929011;29;20500;-87
2023/06/22 09:53:58;;;;;;;7.07;6.53;;;;;;;;;;4955651;28;20488;-87
2023/06/22 09:56:24;;;;;;;7.93;6.83;;;;;;;;;;4956347;29;20468;-87
2023/06/22 09:58:52;;;;;;;7.10;6.40;;;;;;;;;;4956188;29;20408;-87
2023/06/22 10:01:18;;;;;;;8.20;7.60;;;;;;;;;;4923959;29;21004;-87
2023/06/22 10:03:44;;;;;;;10.50;7.43;;;;;;;;;;4924167;29;20882;-87
2023/06/22 10:06:10;;;;;;;8.30;7.50;;;;;;;;;;4924008;29;20417;-87
2023/06/22 10:08:36;;;;;;;8.10;7.30;;;;;;;;;;4939672;29;20431;-79
2023/06/22 10:11:02;;;;;;;8.03;7.23;;;;;;;;;;4939413;29;20407;-79
2023/06/22 10:13:28;;;;;;;9.03;8.17;;;;;;;;;;4956129;29;20400;-77
2023/06/22 10:15:54;;;;;;;11.90;8.90;;;;;;;;;;4956264;29;20415;-85
2023/06/22 10:18:20;;;;;;;10.07;8.60;;;;;;;;;;4956037;29;20881;-84
2023/06/22 10:20:48;;;;;;;9.70;8.70;;;;;;;;;;4956347;29;20559;-84
2023/06/22 10:23:14;;;;;;;9.77;8.93;;;;;;;;;;4956181;29;20456;-80
2023/06/22 10:25:40;;;;;;;11.73;10.57;;;;;;;;;;4956033;29;20405;-84
2023/06/22 10:28:07;;;;;;;11.10;10.07;;;;;;;;;;4923570;29;20427;-83
2023/06/22 10:30:33;;;;;;;11.80;10.70;;;;;;;;;;4952436;28;20425;-83
2023/06/22 10:32:59;;;;;;;14.63;11.20;;;;;;;;;;4951559;29;20491;-83
2023/06/22 10:35:25;;;;;;;11.87;10.77;;;;;;;;;;4944351;29;20831;-80
2023/06/22 10:37:51;;;;;;;17.33;11.53;;;;;;;;;;4936988;29;20409;-81
2023/06/22 10:40:18;;;;;;;12.60;11.30;;;;;;;;;;4936574;29;20552;-80
2023/06/22 10:42:45;;;;;;;13.33;12.13;;;;;;;;;;4937719;29;20480;-80
2023/06/22 10:45:11;;;;;;;15.60;13.40;;;;;;;;;;4937611;29;20822;-80
2023/06/22 10:47:37;;;;;;;16.20;14.33;;;;;;;;;;4937095;29;20417;-80
2023/06/22 10:50:04;;;;;;;16.67;15.00;;;;;;;;;;4937437;29;20783;-81
2023/06/22 10:52:30;;;;;;;18.80;16.23;;;;;;;;;;4936484;29;20432;-80
2023/06/22 10:54:56;;;;;;;21.10;16.90;;;;;;;;;;4936330;29;20465;-80
2023/06/22 10:57:22;;;;;;;19.43;17.57;;;;;;;;;;4936084;29;20436;-80
2023/06/22 10:59:48;;;;;;;25.60;19.20;;;;;;;;;;4938737;29;20402;-80
2023/06/22 11:02:14;;;;;;;24.57;18.50;;;;;;;;;;4936236;29;20476;-80
2023/06/22 11:04:40;;;;;;;23.57;18.90;;;;;;;;;;4919376;29;20552;-80
2023/06/22 11:07:06;;;;;;;22.93;20.30;;;;;;;;;;4936580;29;20405;-79
2023/06/22 11:09:33;;;;;;;18.50;16.67;;;;;;;;;;4936960;29;20496;-80
2023/06/22 11:11:59;;;;;;;18.37;16.50;;;;;;;;;;4919658;29;20520;-80
2023/06/22 11:14:25;;;;;;;21.80;19.37;;;;;;;;;;4935868;29;20409;-80
2023/06/22 11:16:51;;;;;;;28.00;19.53;;;;;;;;;;4936686;29;20413;-80
2023/06/22 11:19:18;;;;;;;25.50;21.60;;;;;;;;;;4919438;29;20417;-79
2023/06/22 11:21:44;;;;;;;27.23;21.30;;;;;;;;;;4936226;29;20473;-80
2023/06/22 11:24:10;;;;;;;22.67;20.33;;;;;;;;;;4936178;29;20790;-80
2023/06/22 11:26:36;;;;;;;27.30;22.37;;;;;;;;;;4936059;29;20424;-80
2023/06/22 11:29:05;;;;;;;27.80;24.17;;;;;;;;;;4936352;29;20480;-80
2023/06/22 11:31:31;;;;;;;27.57;24.60;;;;;;;;;;4919113;29;20421;-80
2023/06/22 11:33:57;;;;;;;32.27;24.97;;;;;;;;;;4936565;29;20457;-81
2023/06/22 11:36:23;;;;;;;28.30;25.20;;;;;;;;;;4935709;29;20890;-80
2023/06/22 11:38:49;;;;;;;25.57;23.07;;;;;;;;;;4902832;29;20465;-81
2023/06/22 11:41:15;;;;;;;26.03;22.23;;;;;;;;;;4935861;29;20500;-81
2023/06/22 11:43:41;;;;;;;21.67;19.57;;;;;;;;;;4935990;29;20445;-81
2023/06/22 11:46:07;;;;;;;21.07;19.13;;;;;;;;;;4936269;29;20452;-81
2023/06/22 11:48:33;;;;;;;20.40;18.40;;;;;;;;;;4936650;29;20448;-80
2023/06/22 11:51:00;;;;;;;22.30;19.07;;;;;;;;;;4936269;29;20406;-80
2023/06/22 11:53:27;;;;;;;19.93;18.00;;;;;;;;;;4935564;29;20565;-80
2023/06/22 11:55:54;;;;;;;19.10;17.03;;;;;;;;;;4935865;29;20437;-80
2023/06/22 11:58:20;;;;;;;16.93;15.33;;;;;;;;;;4936123;29;20406;-80
2023/06/22 12:00:46;;;;;;;18.33;16.50;;;;;;;;;;4935877;29;20965;-81
2023/06/22 12:03:12;;;;;;;20.23;18.13;;;;;;;;;;4937149;29;20421;-81
2023/06/22 12:05:38;;;;;;;18.73;16.93;;;;;;;;;;4919969;29;20921;-81
2023/06/22 12:08:04;;;;;;;19.23;17.43;;;;;;;;;;4937968;29;20418;-81
2023/06/22 12:10:30;;;;;;;19.13;17.20;;;;;;;;;;4941674;29;20449;-81
2023/06/22 12:12:58;;;;;;;20.07;18.27;;;;;;;;;;4944366;29;20414;-82
2023/06/22 12:15:24;;;;;;;20.57;18.20;;;;;;;;;;4925390;29;20417;-81
2023/06/22 12:17:50;;;;;;;19.13;17.23;;;;;;;;;;4941442;29;20409;-80
2023/06/22 12:20:16;;;;;;;20.03;18.30;;;;;;;;;;4925164;29;20862;-80
2023/06/22 12:22:42;;;;;;;19.13;17.23;;;;;;;;;;4924347;29;20473;-80
2023/06/22 12:25:09;;;;;;;18.30;16.67;;;;;;;;;;4941322;29;20422;-80
2023/06/22 12:27:35;;;;;;;18.10;16.27;;;;;;;;;;4940909;29;20409;-81
2023/06/22 12:30:01;;;;;;;18.67;16.77;;;;;;;;;;4951590;29;20414;-94
2023/06/22 12:32:27;;;;;;;18.27;16.67;;;;;;;;;;4953199;29;20417;-91
2023/06/22 12:34:54;;;;;;;21.27;19.27;;;;;;;;;;4917993;29;20429;-91
2023/06/22 12:37:20;;;;;;;19.43;17.47;;;;;;;;;;4932647;29;20413;-92
2023/06/22 12:39:46;;;;;;;18.43;16.80;;;;;;;;;;4932487;29;20948;-91
2023/06/22 12:42:12;;;;;;;19.97;18.20;;;;;;;;;;4919192;29;20477;-89
2023/06/22 12:44:39;;;;;;;23.87;17.70;;;;;;;;;;4918490;29;20917;-90
2023/06/22 12:47:06;;;;;;;19.93;18.03;;;;;;;;;;4919159;29;20512;-89
2023/06/22 12:49:32;;;;;;;18.80;16.80;;;;;;;;;;4916985;29;20422;-90
2023/06/22 12:51:58;;;;;;;19.50;17.80;;;;;;;;;;4948005;29;20409;-89
2023/06/22 12:54:24;;;;;;;19.80;17.83;;;;;;;;;;4946365;29;20523;-89
2023/06/22 12:56:53;;;;;;;20.90;18.73;;;;;;;;;;4946296;29;20428;-89
2023/06/22 12:59:19;;;;;;;19.20;17.50;;;;;;;;;;4929375;29;20526;-90
2023/06/22 13:01:45;;;;;;;19.17;17.27;;;;;;;;;;4929651;29;20937;-89
2023/06/22 13:04:14;;;;;;;19.63;17.63;;;;;;;;;;4913716;29;20461;-90
2023/06/22 13:06:40;;;;;;;15.87;14.30;;;;;;;;;;4930247;29;20457;-91
2023/06/22 13:09:06;;;;;;;14.90;13.50;;;;;;;;;;4910797;29;20425;-83
2023/06/22 13:11:32;;;;;;;14.10;12.87;;;;;;;;;;4941235;29;20410;-86
2023/06/22 13:13:58;;;;;;;14.30;13.00;;;;;;;;;;4910302;29;20561;-86
2023/06/22 13:16:24;;;;;;;15.47;13.97;;;;;;;;;;4945395;29;20420;-87
2023/06/22 13:18:50;;;;;;;14.50;12.53;;;;;;;;;;4957295;29;20512;-86
2023/06/22 13:21:16;;;;;;;13.87;12.57;;;;;;;;;;4932290;29;20464;-86
2023/06/22 13:23:42;;;;;;;13.03;11.93;;;;;;;;;;4944182;29;20464;-86
2023/06/22 13:26:08;;;;;;;11.10;10.10;;;;;;;;;;4910382;29;20940;-86
2023/06/22 13:28:34;;;;;;;9.53;8.63;;;;;;;;;;4941073;29;20461;-86
2023/06/22 13:31:00;;;;;;;11.30;10.33;;;;;;;;;;4942049;29;20429;-86
2023/06/22 13:33:26;;;;;;;10.37;9.47;;;;;;;;;;4922374;29;20412;-86
2023/06/22 13:35:52;;;;;;;9.80;9.00;;;;;;;;;;4923335;28;20453;-86
2023/06/22 13:38:18;;;;;;;11.43;8.97;;;;;;;;;;4959382;28;20440;-85
2023/06/22 13:40:44;;;;;;;10.23;9.27;;;;;;;;;;4959010;28;21077;-85
2023/06/22 13:43:10;;;;;;;8.87;8.07;;;;;;;;;;4976354;28;20451;-84
2023/06/22 13:45:36;;;;;;;7.33;6.73;;;;;;;;;;4943224;28;20432;-85
2023/06/22 13:48:02;;;;;;;8.67;7.77;;;;;;;;;;4958858;28;20416;-85
2023/06/22 13:50:29;;;;;;;11.20;8.67;;;;;;;;;;4977004;28;20439;-84
2023/06/22 13:52:55;;;;;;;8.37;7.60;;;;;;;;;;4976496;28;20419;-85
2023/06/22 13:55:23;;;;;;;16.20;8.77;;;;;;;;;;4976687;28;20399;-84
2023/06/22 13:57:49;;;;;;;10.17;7.70;;;;;;;;;;4958712;28;20450;-85
2023/06/22 14:00:15;;;;;;;7.97;7.17;;;;;;;;;;4958937;28;20899;-84
2023/06/22 14:02:41;;;;;;;7.53;6.93;;;;;;;;;;4959296;28;20419;-84
2023/06/22 14:05:07;;;;;;;8.10;7.47;;;;;;;;;;4942542;28;20434;-84
2023/06/22 14:07:33;;;;;;;8.20;7.40;;;;;;;;;;4958970;28;20427;-84
2023/06/22 14:10:00;;;;;;;9.97;7.87;;;;;;;;;;4977875;28;20408;-85
2023/06/22 14:12:26;;;;;;;7.83;7.20;;;;;;;;;;4975045;28;20399;-84
2023/06/22 14:14:52;;;;;;;9.47;8.27;;;;;;;;;;4939577;29;20471;-84
2023/06/22 14:17:23;;;;;;;9.57;8.60;;;;;;;;;;4955779;29;20904;-84
2023/06/22 14:19:49;;;;;;;9.50;8.60;;;;;;;;;;4955241;29;20447;-85
2023/06/22 14:22:15;;;;;;;11.10;9.60;;;;;;;;;;4939397;29;20488;-85
2023/06/22 14:24:41;;;;;;;9.73;8.73;;;;;;;;;;4939456;29;20432;-85
2023/06/22 14:27:08;;;;;;;8.97;8.07;;;;;;;;;;4955388;29;20428;-84
2023/06/22 14:29:34;;;;;;;8.60;7.90;;;;;;;;;;4954861;29;20440;-84
2023/06/22 14:32:00;;;;;;;9.00;8.10;;;;;;;;;;4956382;29;20408;-85